weather.gov     
National Weather Service

Terminal Aerodrome Forecast
NWS Homepage
This page is being discontinued on March 12, 2014.
The same data is available at this site. Please update your bookmarks.
Thank you, and we apologize for the inconvenience.
Please send an email to SR-SRH.Webmaster@noaa.gov with any concerns.


Current Version
Previous Version:    01  02  03  04  05  06  07  08  09  10  11  12  13  14  15  16  17  18  19  20  21  22  23  24  25  26  27  28  29  30  
   31  32  33  34  35  36  37  38  39  40  41  42  43  44  45  46  47  48  49  50  51  52  53  54  55  56  57  58  59  
[Printable]
735
FTUS43 KDLH 260500
TAFDLH
TAF
KDLH 260539Z 2606/2706 18008KT P6SM FEW018 OVC045
     FM260900 19008G15KT 3SM -SN BR BKN015 OVC035
     FM261000 19010G16KT 1 1/2SM -SN BR OVC009
      TEMPO 2610/2613 1/2SM SN VV005
     FM261500 22007KT 4SM -SN BR OVC009
     FM261900 28008KT P6SM VCSH OVC008
     FM270200 32008KT P6SM BKN015 OVC050=


U.S. Dept. of Commerce
NOAA National Weather Service
1325 East West Highway
Silver Spring, MD 20910
E-mail: w-nws.webmaster@noaa.gov
Page last modified: May 16, 2007
NATIONAL WEATHER SERVICE: for Safety, for Work, for Fun - FOR LIFE